createdAt,value
2023-02-21T00:32:25.799Z,26.08
2023-02-21T00:33:25.770Z,26.09
2023-02-21T00:34:25.800Z,26.10
2023-02-21T00:35:25.716Z,26.07
2023-02-21T00:36:25.716Z,26.13
2023-02-21T00:37:25.703Z,26.09
2023-02-21T00:38:26.655Z,26.15
2023-02-21T00:39:25.691Z,26.10
2023-02-21T00:40:25.651Z,26.10
2023-02-21T00:41:25.623Z,26.09
2023-02-21T00:42:25.630Z,26.10
2023-02-21T00:43:25.603Z,26.11
2023-02-21T00:44:25.593Z,26.12
2023-02-21T00:45:25.564Z,26.13
2023-02-21T00:46:25.554Z,26.15
2023-02-21T00:47:25.532Z,26.11
2023-02-21T00:48:25.527Z,26.10
2023-02-21T00:49:25.530Z,26.11
2023-02-21T00:50:25.500Z,26.13
2023-02-21T00:51:25.503Z,26.17
2023-02-21T00:52:25.466Z,26.18
2023-02-21T00:53:25.474Z,26.14
2023-02-21T00:54:25.470Z,26.13
2023-02-21T00:55:25.446Z,26.15
2023-02-21T00:56:25.422Z,26.18
2023-02-21T00:57:25.416Z,26.14
2023-02-21T00:58:25.420Z,26.20
2023-02-21T00:59:25.390Z,26.13
2023-02-21T01:00:25.360Z,26.13
2023-02-21T01:01:25.395Z,26.15
2023-02-21T01:02:25.335Z,26.18
2023-02-21T01:03:25.317Z,26.14
2023-02-21T01:04:25.330Z,26.13
2023-02-21T01:05:25.273Z,26.17
2023-02-21T01:06:25.263Z,26.13
2023-02-21T01:07:25.252Z,26.15
2023-02-21T01:08:25.233Z,26.15
2023-02-21T01:09:25.244Z,26.16
2023-02-21T01:10:25.198Z,26.18
2023-02-21T01:11:25.206Z,26.16
2023-02-21T01:12:25.197Z,26.17
2023-02-21T01:13:25.177Z,26.15
2023-02-21T01:14:26.827Z,26.19
2023-02-21T01:15:25.151Z,26.17
2023-02-21T01:16:25.118Z,26.17
2023-02-21T01:17:25.108Z,26.16
2023-02-21T01:18:25.106Z,26.16
2023-02-21T01:19:25.114Z,26.19
2023-02-21T01:20:25.117Z,26.15
2023-02-21T01:21:25.051Z,26.16
2023-02-21T01:22:25.049Z,26.18
2023-02-21T01:23:25.036Z,26.30
2023-02-21T01:24:25.039Z,26.19
2023-02-21T01:25:25.038Z,26.15
2023-02-21T01:26:24.994Z,26.15
2023-02-21T01:27:24.976Z,26.19
2023-02-21T01:28:24.959Z,26.18
2023-02-21T01:29:24.960Z,26.18
2023-02-21T01:30:25.024Z,26.17
2023-02-21T01:31:24.968Z,26.16
2023-02-21T01:32:24.950Z,26.18
2023-02-21T01:33:24.896Z,26.17
2023-02-21T01:34:24.854Z,26.18
2023-02-21T01:35:24.862Z,26.16
2023-02-21T01:36:24.857Z,26.17
2023-02-21T01:37:24.840Z,26.17
2023-02-21T01:38:24.819Z,26.16
2023-02-21T01:39:24.812Z,26.18
2023-02-21T01:40:24.824Z,26.17
2023-02-21T01:41:24.799Z,26.17
2023-02-21T01:42:24.795Z,26.19
2023-02-21T01:43:24.748Z,26.19
2023-02-21T01:44:24.746Z,26.20
2023-02-21T01:45:24.755Z,26.19
2023-02-21T01:46:24.751Z,26.18
2023-02-21T01:47:24.694Z,26.24
2023-02-21T01:48:24.690Z,26.23
2023-02-21T01:49:24.659Z,26.21
2023-02-21T01:50:24.646Z,26.23
2023-02-21T01:51:24.615Z,26.21
2023-02-21T01:52:24.592Z,26.21
2023-02-21T01:53:24.580Z,26.22
2023-02-21T01:54:24.553Z,26.25
2023-02-21T01:55:24.549Z,26.24
2023-02-21T01:56:24.515Z,26.21
2023-02-21T01:57:24.513Z,26.22
2023-02-21T01:58:24.485Z,26.21
2023-02-21T01:59:24.458Z,26.21
2023-02-21T02:00:24.445Z,26.22
2023-02-21T02:01:24.413Z,26.21
2023-02-21T02:02:24.413Z,26.25
2023-02-21T02:03:24.372Z,26.23
2023-02-21T02:04:24.388Z,26.19
2023-02-21T02:05:24.347Z,26.21
2023-02-21T02:06:24.357Z,26.21
2023-02-21T02:07:24.307Z,26.24
2023-02-21T02:08:24.282Z,26.25
2023-02-21T02:09:24.279Z,26.29
2023-02-21T02:10:24.292Z,26.24
2023-02-21T02:11:24.229Z,26.23
2023-02-21T02:12:24.214Z,26.22
2023-02-21T02:13:24.225Z,26.22
2023-02-21T02:14:24.178Z,26.24
2023-02-21T02:15:24.189Z,26.26
2023-02-21T02:16:24.142Z,26.24
2023-02-21T02:17:24.127Z,26.23
2023-02-21T02:18:24.119Z,26.22
2023-02-21T02:19:24.151Z,26.23
2023-02-21T02:20:24.080Z,26.23
2023-02-21T02:21:24.059Z,26.23
2023-02-21T02:22:24.048Z,26.21
2023-02-21T02:23:24.008Z,26.24
2023-02-21T02:24:23.986Z,26.30
2023-02-21T02:25:24.001Z,26.24
2023-02-21T02:26:23.950Z,26.23
2023-02-21T02:27:23.954Z,26.22
2023-02-21T02:28:23.910Z,26.24
2023-02-21T02:29:23.888Z,26.23
2023-02-21T02:30:23.905Z,26.20
2023-02-21T02:31:23.936Z,26.22
2023-02-21T02:32:23.846Z,26.22
2023-02-21T02:33:23.819Z,26.23
2023-02-21T02:34:23.783Z,26.24
2023-02-21T02:35:23.792Z,26.22
2023-02-21T02:36:23.778Z,26.23
2023-02-21T02:37:23.767Z,26.23
2023-02-21T02:38:23.712Z,26.31
2023-02-21T02:39:23.678Z,26.25
2023-02-21T02:40:23.673Z,25.92
2023-02-21T02:41:23.650Z,24.88
2023-02-21T02:42:23.636Z,24.32
2023-02-21T02:43:23.604Z,24.02
2023-02-21T02:44:23.610Z,23.65
2023-02-21T02:45:23.579Z,23.39
2023-02-21T02:46:23.631Z,23.09
2023-02-21T02:47:23.579Z,22.87
2023-02-21T02:48:23.541Z,22.67
2023-02-21T02:49:23.550Z,22.54
2023-02-21T02:50:23.508Z,22.42
2023-02-21T02:51:23.514Z,22.36
2023-02-21T02:52:23.480Z,22.22
2023-02-21T02:53:23.492Z,22.07
2023-02-21T02:54:23.469Z,21.87
2023-02-21T02:55:23.458Z,21.75
2023-02-21T02:56:23.476Z,21.60
2023-02-21T02:57:23.470Z,21.40
2023-02-21T02:58:23.431Z,21.27
2023-02-21T02:59:23.438Z,21.26
2023-02-21T03:00:23.413Z,21.08
2023-02-21T03:01:23.463Z,20.95
2023-02-21T03:02:23.409Z,20.86
2023-02-21T03:03:23.499Z,20.87
2023-02-21T03:04:23.380Z,20.75
2023-02-21T03:05:23.565Z,20.69
2023-02-21T03:06:23.387Z,20.62
2023-02-21T03:07:23.360Z,20.56
2023-02-21T03:08:23.328Z,20.46
2023-02-21T03:09:23.335Z,20.39
2023-02-21T03:10:23.315Z,20.33
2023-02-21T03:11:23.319Z,20.27
2023-02-21T03:12:23.290Z,20.23
2023-02-21T03:13:23.261Z,20.17
2023-02-21T03:14:23.249Z,20.08
2023-02-21T03:15:23.231Z,20.03
2023-02-21T03:16:23.309Z,20.00
2023-02-21T03:17:23.206Z,19.97
2023-02-21T03:18:23.174Z,19.87
2023-02-21T03:19:23.170Z,19.81
2023-02-21T03:20:23.166Z,19.80
2023-02-21T03:21:23.142Z,19.78
2023-02-21T03:22:23.146Z,19.71
2023-02-21T03:23:23.105Z,19.69
2023-02-21T03:24:23.095Z,19.72
2023-02-21T03:25:23.087Z,19.69
2023-02-21T03:26:23.090Z,19.59
2023-02-21T03:27:23.092Z,19.56
2023-02-21T03:28:23.060Z,19.56
2023-02-21T03:29:23.069Z,19.57
2023-02-21T03:30:23.106Z,19.49
2023-02-21T03:31:23.047Z,19.46
2023-02-21T03:32:23.089Z,19.44
2023-02-21T03:33:22.999Z,19.42
2023-02-21T03:34:22.982Z,19.41
2023-02-21T03:35:22.985Z,19.34
2023-02-21T03:36:22.977Z,19.36
2023-02-21T03:37:22.962Z,19.30
2023-02-21T03:38:22.940Z,19.30
2023-02-21T03:39:22.912Z,19.25
2023-02-21T03:40:22.897Z,19.24
2023-02-21T03:41:22.901Z,19.21
2023-02-21T03:42:22.894Z,19.18
2023-02-21T03:43:22.864Z,19.16
2023-02-21T03:44:22.868Z,19.15
2023-02-21T03:45:22.854Z,19.16
2023-02-21T03:46:22.870Z,19.11
2023-02-21T03:47:22.853Z,19.08
2023-02-21T03:48:31.311Z,19.05
2023-02-21T03:49:23.795Z,19.05
2023-02-21T03:50:22.807Z,19.01
2023-02-21T03:51:22.803Z,19.00
2023-02-21T03:52:22.792Z,19.00
2023-02-21T03:53:22.800Z,18.95
2023-02-21T03:54:22.783Z,18.93
2023-02-21T03:55:22.750Z,18.93
2023-02-21T03:56:26.122Z,18.91
2023-02-21T03:57:23.771Z,18.88
2023-02-21T03:58:22.741Z,18.90
2023-02-21T03:59:22.778Z,18.89
2023-02-21T04:00:22.728Z,18.83
2023-02-21T04:01:22.786Z,18.84
2023-02-21T04:02:22.769Z,18.80
2023-02-21T04:03:22.725Z,18.77
2023-02-21T04:04:22.708Z,18.78
2023-02-21T04:05:22.697Z,18.72
2023-02-21T04:06:22.703Z,18.74
2023-02-21T04:07:22.728Z,18.69
2023-02-21T04:08:22.679Z,18.68
2023-02-21T04:09:22.640Z,18.68
2023-02-21T04:10:22.644Z,18.65
2023-02-21T04:11:22.618Z,18.68
2023-02-21T04:12:22.626Z,18.66
2023-02-21T04:13:22.574Z,18.63
2023-02-21T04:14:22.587Z,18.65
2023-02-21T04:15:22.597Z,18.61
2023-02-21T04:16:22.572Z,18.61
2023-02-21T04:17:22.554Z,18.55
2023-02-21T04:18:22.558Z,18.56
2023-02-21T04:19:22.509Z,18.59
2023-02-21T04:20:22.539Z,18.55
2023-02-21T04:21:22.496Z,18.54
2023-02-21T04:22:22.527Z,18.58
2023-02-21T04:23:22.469Z,18.55
2023-02-21T04:24:22.453Z,18.55
2023-02-21T04:25:22.444Z,18.51
2023-02-21T04:26:22.450Z,18.50
2023-02-21T04:27:22.405Z,18.52
2023-02-21T04:28:22.416Z,18.47
2023-02-21T04:29:22.405Z,18.47
2023-02-21T04:30:22.372Z,18.44
2023-02-21T04:31:22.371Z,18.45
2023-02-21T04:32:22.579Z,18.46
2023-02-21T04:33:22.359Z,18.42
2023-02-21T04:34:22.331Z,18.42
2023-02-21T04:35:22.333Z,18.40
2023-02-21T04:36:22.303Z,18.39
2023-02-21T04:37:22.305Z,18.39
2023-02-21T04:38:22.301Z,18.35
2023-02-21T04:39:22.270Z,18.37
2023-02-21T04:40:22.239Z,18.37
2023-02-21T04:41:22.215Z,18.36
2023-02-21T04:42:22.227Z,18.36
2023-02-21T04:43:22.223Z,18.32
2023-02-21T04:44:22.221Z,18.36
2023-02-21T04:45:22.219Z,18.37
2023-02-21T04:46:22.207Z,18.28
2023-02-21T04:47:22.165Z,18.28
2023-02-21T05:32:46.493Z,18.06
2023-02-21T05:37:21.911Z,18.02
2023-02-21T05:38:21.912Z,18.03
2023-02-21T05:39:21.927Z,17.99
2023-02-21T05:40:21.930Z,17.99
2023-02-21T05:41:21.897Z,17.94
2023-02-21T05:42:21.894Z,17.94
2023-02-21T05:43:21.888Z,17.91
2023-02-21T05:44:21.884Z,17.98
2023-02-21T05:45:21.878Z,17.94
2023-02-21T05:46:21.932Z,17.91
2023-02-21T05:47:21.866Z,17.92
2023-02-21T05:48:21.869Z,17.89
2023-02-21T05:49:21.887Z,17.92
2023-02-21T05:50:21.867Z,17.89
2023-02-21T05:51:21.872Z,17.87
2023-02-21T05:52:21.842Z,17.90
2023-02-21T05:53:21.847Z,17.95
2023-02-21T05:54:21.823Z,17.87
2023-02-21T05:55:21.820Z,17.91
2023-02-21T05:56:21.828Z,17.86
2023-02-21T05:57:21.834Z,17.87
2023-02-21T05:58:21.793Z,17.86
2023-02-21T05:59:21.821Z,17.86
2023-02-21T06:00:21.778Z,17.85
2023-02-21T06:01:21.780Z,17.86
2023-02-21T06:02:21.808Z,17.82
2023-02-21T06:03:21.822Z,17.83
2023-02-21T06:04:21.768Z,17.80
2023-02-21T06:05:21.762Z,17.81
2023-02-21T06:06:21.764Z,17.80
2023-02-21T06:07:21.747Z,17.80
2023-02-21T06:08:21.741Z,17.82
2023-02-21T06:09:21.750Z,17.78
2023-02-21T06:10:21.755Z,17.79
2023-02-21T06:11:21.739Z,17.78
2023-02-21T06:12:21.734Z,17.80
2023-02-21T06:13:21.724Z,17.82
2023-02-21T06:14:21.716Z,17.82
2023-02-21T06:15:21.753Z,17.80
2023-02-21T06:16:21.702Z,17.78
2023-02-21T06:17:21.719Z,17.79
2023-02-21T06:18:21.693Z,17.77
2023-02-21T06:19:21.684Z,17.74
2023-02-21T06:20:21.699Z,17.73
2023-02-21T06:21:21.699Z,17.74
2023-02-21T06:22:21.670Z,17.71
2023-02-21T06:23:21.668Z,17.70
2023-02-21T06:24:21.694Z,17.70
2023-02-21T06:25:21.704Z,17.69
2023-02-21T06:26:21.676Z,17.72
2023-02-21T06:27:21.646Z,17.69
2023-02-21T06:28:21.670Z,17.70
2023-02-21T06:29:21.682Z,18.26
2023-02-21T06:30:23.172Z,18.85
2023-02-21T06:31:21.688Z,19.18
2023-02-21T06:32:21.667Z,19.17
2023-02-21T06:33:21.667Z,19.76
2023-02-21T06:34:21.645Z,19.97
2023-02-21T06:35:21.799Z,20.09
2023-02-21T06:36:21.652Z,20.46
2023-02-21T06:37:21.652Z,20.74
2023-02-21T06:38:21.651Z,20.92
2023-02-21T06:39:21.652Z,20.35
2023-02-21T06:40:21.655Z,19.20
2023-02-21T06:41:21.646Z,18.81
2023-02-21T06:42:21.689Z,18.70
2023-02-21T06:43:21.642Z,18.34
2023-02-21T06:44:21.630Z,18.64
2023-02-21T06:45:21.659Z,19.17
2023-02-21T06:46:21.629Z,19.77
2023-02-21T06:47:21.643Z,20.98
2023-02-21T06:48:21.644Z,21.31
2023-02-21T06:49:21.597Z,21.68
2023-02-21T06:50:21.612Z,22.05
2023-02-21T06:51:21.592Z,22.61
2023-02-21T06:52:21.615Z,22.71
2023-02-21T06:53:21.605Z,23.00
2023-02-21T06:54:21.576Z,23.36
2023-02-21T06:55:23.089Z,23.42
2023-02-21T06:56:21.588Z,23.69
2023-02-21T06:57:21.538Z,23.52
2023-02-21T06:58:21.538Z,23.61
2023-02-21T06:59:21.520Z,23.75
2023-02-21T07:00:21.519Z,24.02
2023-02-21T07:01:21.517Z,24.08
2023-02-21T07:02:21.603Z,24.34
2023-02-21T07:03:21.457Z,24.58
2023-02-21T07:04:21.538Z,24.65
2023-02-21T07:05:21.459Z,24.75
2023-02-21T07:06:21.623Z,24.89
2023-02-21T07:07:21.421Z,24.84
2023-02-21T07:08:21.410Z,24.93
2023-02-21T07:09:21.418Z,25.03
2023-02-21T07:10:21.410Z,25.14
2023-02-21T07:11:21.441Z,25.22
2023-02-21T07:12:21.384Z,25.34
2023-02-21T07:13:22.584Z,25.45
2023-02-21T07:14:21.331Z,25.17
2023-02-21T07:15:21.314Z,25.34
2023-02-21T07:16:21.321Z,25.74
2023-02-21T07:17:21.261Z,25.80
2023-02-21T07:18:21.268Z,25.83
2023-02-21T07:19:21.292Z,25.98
2023-02-21T07:20:21.245Z,25.98
2023-02-21T07:21:21.222Z,26.20
2023-02-21T07:22:21.175Z,26.18
2023-02-21T07:23:21.151Z,26.24
2023-02-21T07:24:21.170Z,26.38
2023-02-21T07:25:21.135Z,26.37
2023-02-21T07:26:21.132Z,26.45
2023-02-21T07:27:21.108Z,26.52
2023-02-21T07:28:21.071Z,26.58
2023-02-21T07:29:21.077Z,26.72
2023-02-21T07:30:21.065Z,26.86
2023-02-21T07:31:21.425Z,27.10
2023-02-21T07:32:21.002Z,26.86
2023-02-21T07:33:20.964Z,27.00
2023-02-21T09:08:20.207Z,26.72
2023-02-21T09:09:20.147Z,27.03
2023-02-21T09:10:20.137Z,27.10
2023-02-21T09:11:20.104Z,27.13
2023-02-21T09:12:20.109Z,27.26
2023-02-21T09:13:20.132Z,27.32
2023-02-21T09:14:20.078Z,27.20
2023-02-21T09:15:20.082Z,27.44
2023-02-21T09:16:20.124Z,27.24
2023-02-21T09:17:20.040Z,27.37
2023-02-21T09:18:20.096Z,27.52
2023-02-21T09:19:19.998Z,27.58
2023-02-21T09:20:20.002Z,27.67
2023-02-21T09:21:19.953Z,27.52
2023-02-21T09:22:19.916Z,27.70
2023-02-21T09:23:19.911Z,27.85
2023-02-21T09:24:19.896Z,27.80
2023-02-21T09:25:19.878Z,27.70
2023-02-21T09:26:19.919Z,27.83
2023-02-21T09:27:19.823Z,27.83
2023-02-21T09:28:19.849Z,27.81
2023-02-21T09:29:19.827Z,27.96
2023-02-21T09:30:19.857Z,28.04
2023-02-21T09:31:19.793Z,28.10
2023-02-21T09:32:19.732Z,27.57
2023-02-21T09:33:19.692Z,27.75
2023-02-21T09:34:19.721Z,27.34
2023-02-21T09:35:19.680Z,26.20
2023-02-21T09:36:19.639Z,26.07
2023-02-21T09:37:19.634Z,26.04
2023-02-21T09:38:19.605Z,25.49
2023-02-21T09:39:19.606Z,25.53
2023-02-21T09:40:19.591Z,25.15
2023-02-21T09:41:19.555Z,24.49
2023-02-21T09:42:19.541Z,24.71
2023-02-21T09:43:19.519Z,23.70
2023-02-21T09:44:19.487Z,23.82
2023-02-21T09:45:19.484Z,23.61
2023-02-21T09:46:19.467Z,23.43
2023-02-21T09:47:19.431Z,23.53
2023-02-21T09:48:19.419Z,23.87
2023-02-21T09:49:19.417Z,23.50
2023-02-21T09:50:19.380Z,22.41
2023-02-21T09:51:19.381Z,22.61
2023-02-21T09:52:19.343Z,22.47
2023-02-21T09:53:19.329Z,22.83
2023-02-21T09:54:19.353Z,22.77
2023-02-21T09:55:19.342Z,22.60
2023-02-21T09:56:19.350Z,22.81
2023-02-21T09:57:19.309Z,22.86
2023-02-21T09:58:19.265Z,22.86
2023-02-21T09:59:19.268Z,23.04
2023-02-21T10:00:19.291Z,22.94
2023-02-21T10:01:19.279Z,23.39
2023-02-21T10:02:19.231Z,23.32
2023-02-21T10:03:19.206Z,23.60
2023-02-21T10:04:19.221Z,23.87
2023-02-21T10:05:19.236Z,24.20
2023-02-21T10:06:19.162Z,24.20
2023-02-21T10:07:19.158Z,24.51
2023-02-21T10:08:19.166Z,24.71
2023-02-21T10:09:19.125Z,24.90
2023-02-21T10:10:19.150Z,25.01
2023-02-21T10:11:21.252Z,25.07
2023-02-21T10:12:19.504Z,25.33
2023-02-21T10:13:19.270Z,25.36
2023-02-21T10:14:19.181Z,25.40
2023-02-21T10:15:19.011Z,25.40
2023-02-21T10:16:19.062Z,25.73
2023-02-21T10:17:19.007Z,25.55
2023-02-21T10:18:19.646Z,25.61
2023-02-21T10:19:18.941Z,25.45
2023-02-21T10:20:18.945Z,25.31
2023-02-21T10:21:18.908Z,24.27
2023-02-21T10:22:18.908Z,24.23
2023-02-21T10:23:18.911Z,24.90
2023-02-21T10:24:18.914Z,25.32
2023-02-21T10:25:18.915Z,25.74
2023-02-21T10:26:18.883Z,25.74
2023-02-21T10:27:18.906Z,26.05
2023-02-21T10:28:18.808Z,25.85
2023-02-21T10:29:18.921Z,25.49
2023-02-21T10:30:20.033Z,25.19
2023-02-21T10:31:21.444Z,24.83
2023-02-21T10:32:20.844Z,24.68
2023-02-21T10:33:20.643Z,24.59
2023-02-21T10:34:19.578Z,24.66
2023-02-21T10:35:19.930Z,24.95
2023-02-21T10:36:22.082Z,25.15
2023-02-21T10:37:20.884Z,25.22
2023-02-21T10:38:18.925Z,25.05
2023-02-21T10:39:19.745Z,25.20
2023-02-21T10:40:19.621Z,24.70
2023-02-21T10:41:20.511Z,25.26
2023-02-21T10:42:19.179Z,24.91
2023-02-21T10:43:18.751Z,24.42
2023-02-21T10:44:18.706Z,24.81
2023-02-21T10:45:18.736Z,24.26
2023-02-21T10:46:18.804Z,21.31
2023-02-21T10:47:18.617Z,21.89
2023-02-21T10:48:18.644Z,22.75
2023-02-21T10:49:18.661Z,22.40
2023-02-21T10:50:18.728Z,23.01
2023-02-21T10:51:19.388Z,22.95
2023-02-21T10:52:19.879Z,23.33
2023-02-21T10:53:19.608Z,23.55
2023-02-21T10:54:25.163Z,23.79
2023-02-21T10:55:32.184Z,23.86
2023-02-21T10:56:37.113Z,23.76
2023-02-21T10:57:24.746Z,23.52
2023-02-21T10:58:28.525Z,23.18
2023-02-21T10:59:26.985Z,22.04
2023-02-21T11:00:30.719Z,22.48
2023-02-21T11:01:21.178Z,22.50
2023-02-21T11:03:20.978Z,21.46
2023-02-21T11:04:22.247Z,21.56
2023-02-21T11:05:20.882Z,21.50
2023-02-21T11:06:19.687Z,21.79
2023-02-21T11:07:20.928Z,22.01
2023-02-21T11:08:21.231Z,22.11
2023-02-21T11:09:21.642Z,21.92
2023-02-21T11:10:22.696Z,22.19
2023-02-21T11:11:20.987Z,22.26
2023-02-21T11:12:23.635Z,22.02
2023-02-21T11:13:21.811Z,22.18
2023-02-21T11:14:24.307Z,21.81
2023-02-21T11:15:23.557Z,21.77
2023-02-21T11:16:19.363Z,21.78
2023-02-21T11:17:23.312Z,21.66
2023-02-21T11:18:20.597Z,21.73
2023-02-21T11:19:20.985Z,21.61
2023-02-21T11:20:20.089Z,22.02
2023-02-21T11:21:20.153Z,21.99
2023-02-21T11:22:21.646Z,22.03
2023-02-21T11:23:20.963Z,22.18
2023-02-21T11:24:21.873Z,22.28
2023-02-21T11:25:22.067Z,22.26
2023-02-21T11:26:24.989Z,22.25
2023-02-21T11:27:21.328Z,22.38
2023-02-21T11:28:22.352Z,22.31
2023-02-21T11:29:18.479Z,22.19
2023-02-21T11:30:20.062Z,22.40
2023-02-21T11:31:22.198Z,22.40
2023-02-21T11:32:22.755Z,22.42
2023-02-21T11:33:19.173Z,22.42
2023-02-21T11:34:18.794Z,22.38
2023-02-21T11:35:29.772Z,22.39
2023-02-21T11:36:20.746Z,22.38
2023-02-21T11:37:20.845Z,22.44
2023-02-21T11:38:21.450Z,22.08
2023-02-21T11:39:21.193Z,21.97
2023-02-21T11:40:19.179Z,22.25
2023-02-21T11:41:19.371Z,22.17
2023-02-21T11:42:18.311Z,22.20
2023-02-21T11:43:18.236Z,22.31
2023-02-21T11:44:18.837Z,22.18
2023-02-21T11:45:17.939Z,22.18
2023-02-21T11:46:18.090Z,22.29
2023-02-21T11:47:18.330Z,22.13
2023-02-21T11:48:19.273Z,21.37
2023-02-21T11:49:18.346Z,21.58
2023-02-21T11:50:18.227Z,21.57
2023-02-21T11:51:18.469Z,21.59
2023-02-21T11:52:17.943Z,21.46
2023-02-21T11:53:17.840Z,21.69
2023-02-21T11:54:17.885Z,21.44
2023-02-21T11:55:17.968Z,21.16
2023-02-21T11:56:18.029Z,21.01
2023-02-21T11:57:18.056Z,21.12
2023-02-21T11:58:17.990Z,21.27
2023-02-21T11:59:18.405Z,21.18
2023-02-21T12:00:17.913Z,21.22
2023-02-21T12:01:18.756Z,21.02
2023-02-21T12:02:18.019Z,21.21
2023-02-21T12:03:17.874Z,21.04
2023-02-21T12:04:17.865Z,21.31
2023-02-21T12:05:17.869Z,21.04
2023-02-21T12:06:19.611Z,20.68
2023-02-21T12:07:17.868Z,20.75
2023-02-21T12:08:18.190Z,20.78
2023-02-21T12:09:18.441Z,20.59
2023-02-21T12:10:17.648Z,20.75
2023-02-21T12:11:18.140Z,20.65
2023-02-21T12:33:17.399Z,19.27
2023-02-21T12:34:17.455Z,19.17
2023-02-21T12:35:17.521Z,19.13
2023-02-21T12:36:17.530Z,19.03
2023-02-21T12:37:17.561Z,18.96
2023-02-21T12:38:17.594Z,18.81
2023-02-21T12:39:17.617Z,18.86
2023-02-21T12:40:17.683Z,18.55
2023-02-21T12:50:17.967Z,18.26
2023-02-21T12:51:18.058Z,18.04
2023-02-21T12:52:18.034Z,18.11
2023-02-21T12:53:18.091Z,18.09
2023-02-21T12:54:18.100Z,18.06
2023-02-21T12:55:18.154Z,17.90
2023-02-21T12:56:18.303Z,17.92
2023-02-21T12:57:18.126Z,17.91
2023-02-21T12:58:18.107Z,17.79
2023-02-21T12:59:18.068Z,17.78
2023-02-21T13:00:18.027Z,17.91
2023-02-21T13:01:21.073Z,17.85
2023-02-21T13:02:17.986Z,17.80
2023-02-21T13:03:17.964Z,17.90
2023-02-21T13:04:17.901Z,17.94
2023-02-21T13:05:17.888Z,17.96
2023-02-21T13:06:17.866Z,17.98
2023-02-21T13:07:17.828Z,18.02
2023-02-21T13:08:17.811Z,18.00
2023-02-21T13:09:17.776Z,18.03
2023-02-21T13:10:17.749Z,18.06
2023-02-21T13:11:17.755Z,18.05
2023-02-21T13:12:17.705Z,18.08
2023-02-21T13:13:17.695Z,18.11
2023-02-21T13:14:17.673Z,18.17
2023-02-21T13:15:17.632Z,18.15
2023-02-21T13:16:17.629Z,18.18
2023-02-21T13:17:17.542Z,18.20
2023-02-21T13:18:17.541Z,18.21
2023-02-21T13:19:17.528Z,18.22
2023-02-21T13:20:17.447Z,18.22
2023-02-21T13:21:17.517Z,18.24
2023-02-21T13:22:17.391Z,18.24
2023-02-21T13:23:17.387Z,18.26
2023-02-21T13:24:17.323Z,18.25
2023-02-21T13:25:17.304Z,18.29
2023-02-21T13:26:17.269Z,18.28
2023-02-21T13:27:17.235Z,18.26
2023-02-21T13:28:17.230Z,18.29
2023-02-21T13:29:17.181Z,18.30
2023-02-21T13:30:17.172Z,18.32
2023-02-21T13:31:17.452Z,18.31
2023-02-21T13:32:17.232Z,18.33
2023-02-21T13:33:17.074Z,18.28
2023-02-21T13:34:17.010Z,18.51
2023-02-21T13:35:16.991Z,18.45
2023-02-21T13:36:16.919Z,18.35
2023-02-21T13:37:16.890Z,18.18
2023-02-21T13:38:16.888Z,18.22
2023-02-21T13:39:16.844Z,18.19
2023-02-21T13:40:16.793Z,18.01
2023-02-21T13:41:17.239Z,18.03
2023-02-21T13:42:16.754Z,18.07
2023-02-21T13:43:16.710Z,18.08
2023-02-21T13:44:16.724Z,17.98
2023-02-21T13:45:16.668Z,18.09
2023-02-21T13:46:16.755Z,18.06
2023-02-21T13:47:16.638Z,18.01
2023-02-21T13:48:16.563Z,18.08
2023-02-21T13:49:16.540Z,18.05
2023-02-21T13:50:16.500Z,18.86
2023-02-21T13:51:16.658Z,19.36
2023-02-21T13:52:16.433Z,20.15
2023-02-21T13:53:16.430Z,21.39
2023-02-21T13:54:16.373Z,21.80
2023-02-21T13:55:16.371Z,21.87
2023-02-21T13:56:16.346Z,21.81
2023-02-21T13:57:16.352Z,22.29
2023-02-21T13:58:16.319Z,22.30
2023-02-21T13:59:16.270Z,22.41
2023-02-21T14:00:16.250Z,22.58
2023-02-21T14:01:16.175Z,22.50
2023-02-21T14:02:16.147Z,22.64
2023-02-21T14:03:16.119Z,22.56
2023-02-21T14:04:16.113Z,22.49
2023-02-21T14:05:16.053Z,22.51
2023-02-21T14:06:16.234Z,22.42
2023-02-21T14:07:15.990Z,22.30
2023-02-21T14:08:15.958Z,22.29
2023-02-21T14:09:15.956Z,22.26
2023-02-21T14:10:15.927Z,22.21
2023-02-21T14:11:15.881Z,22.16
2023-02-21T14:12:15.864Z,22.13
2023-02-21T14:13:15.825Z,22.05
2023-02-21T14:14:15.819Z,22.01
2023-02-21T14:15:15.793Z,21.96
2023-02-21T14:16:16.167Z,21.96
2023-02-21T14:17:15.712Z,21.89
2023-02-21T14:18:15.690Z,21.78
2023-02-21T14:19:15.705Z,21.77
2023-02-21T14:20:15.645Z,21.73
2023-02-21T14:21:15.927Z,21.69
2023-02-21T14:22:15.631Z,21.65
2023-02-21T14:23:15.594Z,21.59
2023-02-21T14:24:15.555Z,21.58
2023-02-21T14:25:15.540Z,21.53
2023-02-21T14:26:15.708Z,21.46
2023-02-21T14:27:15.489Z,21.43
2023-02-21T14:28:15.429Z,21.40
2023-02-21T14:29:15.451Z,21.43
2023-02-21T14:30:15.519Z,21.45
2023-02-21T14:31:15.794Z,21.48
2023-02-21T14:32:15.412Z,21.50
2023-02-21T14:33:16.037Z,21.50
2023-02-21T14:34:15.305Z,21.50
2023-02-21T14:35:15.312Z,21.50
2023-02-21T14:36:15.308Z,21.50
2023-02-21T14:37:15.245Z,21.47
2023-02-21T14:38:15.199Z,21.50
2023-02-21T14:39:15.186Z,21.50
2023-02-21T14:40:15.172Z,21.51
2023-02-21T14:41:15.414Z,21.53
2023-02-21T14:42:15.183Z,21.53
2023-02-21T14:43:15.244Z,21.54
2023-02-21T14:44:15.256Z,21.55
2023-02-21T14:45:15.320Z,21.56
2023-02-21T14:46:15.305Z,21.58
2023-02-21T14:47:15.337Z,21.60
2023-02-21T14:48:15.364Z,21.62
2023-02-21T14:49:17.323Z,21.63
2023-02-21T14:50:15.373Z,21.65
2023-02-21T14:51:15.642Z,21.67
2023-02-21T14:52:15.298Z,21.68
2023-02-21T14:53:15.255Z,21.72
2023-02-21T14:54:15.246Z,21.71
2023-02-21T14:55:15.220Z,21.74
2023-02-21T14:56:15.196Z,21.75
2023-02-21T14:57:15.138Z,21.77
2023-02-21T14:58:15.098Z,21.79
2023-02-21T14:59:15.070Z,21.80
2023-02-21T15:00:15.062Z,21.84
2023-02-21T15:01:15.429Z,21.84
2023-02-21T15:02:14.977Z,21.85
2023-02-21T15:03:14.970Z,21.85
2023-02-21T15:04:15.017Z,21.85
2023-02-21T15:05:14.903Z,21.85
2023-02-21T15:06:14.883Z,21.88
2023-02-21T15:07:14.832Z,21.88
2023-02-21T15:08:14.795Z,21.91
2023-02-21T15:09:14.801Z,21.92
2023-02-21T19:02:09.402Z,23.97
2023-02-21T19:03:09.385Z,23.96
2023-02-21T19:04:09.383Z,24.00
2023-02-21T19:05:09.347Z,24.01
2023-02-21T19:06:09.354Z,24.02
2023-02-21T19:07:09.308Z,24.01
2023-02-21T19:08:09.288Z,24.04
2023-02-21T19:09:09.263Z,24.01
2023-02-21T19:10:09.304Z,24.03
2023-02-21T19:11:09.278Z,24.06
2023-02-21T19:12:09.241Z,24.05
2023-02-21T19:13:09.245Z,24.04
2023-02-21T19:14:09.221Z,24.05
2023-02-21T19:15:09.169Z,24.08
2023-02-21T19:16:09.209Z,24.07
2023-02-21T19:17:09.122Z,24.10
2023-02-21T19:18:09.127Z,24.09
2023-02-21T19:19:09.094Z,24.10
2023-02-21T19:20:09.087Z,24.09
2023-02-21T19:21:09.096Z,24.13
2023-02-21T19:22:09.054Z,24.16
2023-02-21T19:23:09.023Z,24.15
2023-02-21T19:24:09.024Z,24.15
2023-02-21T19:25:08.989Z,24.14
2023-02-21T19:26:09.001Z,24.14
2023-02-21T19:27:09.008Z,24.16
2023-02-21T19:28:08.930Z,24.13
2023-02-21T19:29:08.932Z,24.16
2023-02-21T19:30:08.978Z,24.19
2023-02-21T19:31:08.919Z,24.18
2023-02-21T19:32:08.960Z,24.14
2023-02-21T19:33:08.849Z,24.17
2023-02-21T19:34:08.832Z,24.18
2023-02-21T19:35:08.787Z,24.20
2023-02-21T19:36:08.800Z,24.18
2023-02-21T19:37:08.765Z,24.20
2023-02-21T19:38:08.780Z,24.22
2023-02-21T19:39:08.710Z,24.19
2023-02-21T19:40:08.723Z,24.22
2023-02-21T19:41:08.700Z,24.21
2023-02-21T19:42:08.662Z,24.21
2023-02-21T19:43:08.626Z,24.23
2023-02-21T19:44:08.611Z,24.23
2023-02-21T19:45:08.584Z,24.21
2023-02-21T19:46:08.654Z,24.23
2023-02-21T19:47:08.541Z,24.23
2023-02-21T19:48:08.514Z,24.24
2023-02-21T19:49:08.502Z,24.26
2023-02-21T19:50:08.460Z,24.27
2023-02-21T19:51:08.468Z,24.24
2023-02-21T19:52:08.441Z,24.22
2023-02-21T19:53:08.435Z,24.26
2023-02-21T19:54:08.401Z,24.27
2023-02-21T19:55:08.398Z,24.25
2023-02-21T19:56:08.383Z,24.28
2023-02-21T19:57:08.376Z,24.26
2023-02-21T19:58:08.365Z,24.27
2023-02-21T19:59:08.349Z,24.27
2023-02-21T20:00:08.310Z,24.27
2023-02-21T20:01:08.364Z,24.28
2023-02-21T20:02:08.270Z,24.28
2023-02-21T20:03:08.247Z,24.31
2023-02-21T20:04:08.281Z,24.29
2023-02-21T20:05:08.233Z,24.30
2023-02-21T20:06:08.208Z,24.30
2023-02-21T20:07:08.372Z,24.30
2023-02-21T20:08:08.178Z,24.31
2023-02-21T20:09:08.137Z,24.30